sensor_id;sensor_type;location;lat;lon;timestamp;temperature;humidity
45044;DHT22;30784;48.490;9.688;2023-02-15T00:01:36;7.10;55.10
45044;DHT22;30784;48.490;9.688;2023-02-15T00:04:03;7.10;54.70
45044;DHT22;30784;48.490;9.688;2023-02-15T00:06:32;7.10;54.90
45044;DHT22;30784;48.490;9.688;2023-02-15T00:09:00;7.10;54.80
45044;DHT22;30784;48.490;9.688;2023-02-15T00:11:40;7.10;54.90
45044;DHT22;30784;48.490;9.688;2023-02-15T00:14:23;7.00;54.60
45044;DHT22;30784;48.490;9.688;2023-02-15T00:16:52;7.00;54.50
45044;DHT22;30784;48.490;9.688;2023-02-15T00:19:21;7.00;54.60
45044;DHT22;30784;48.490;9.688;2023-02-15T00:21:47;7.20;54.90
45044;DHT22;30784;48.490;9.688;2023-02-15T00:24:18;6.90;54.70
45044;DHT22;30784;48.490;9.688;2023-02-15T00:26:44;6.90;54.70
45044;DHT22;30784;48.490;9.688;2023-02-15T00:29:11;6.90;54.70
45044;DHT22;30784;48.490;9.688;2023-02-15T00:31:37;6.80;54.50
45044;DHT22;30784;48.490;9.688;2023-02-15T00:34:13;6.80;54.40
45044;DHT22;30784;48.490;9.688;2023-02-15T00:36:39;6.80;54.40
45044;DHT22;30784;48.490;9.688;2023-02-15T00:39:05;6.80;54.50
45044;DHT22;30784;48.490;9.688;2023-02-15T00:41:31;6.80;54.50
45044;DHT22;30784;48.490;9.688;2023-02-15T00:43:57;6.70;54.50
45044;DHT22;30784;48.490;9.688;2023-02-15T00:46:22;6.70;54.40
45044;DHT22;30784;48.490;9.688;2023-02-15T00:48:48;6.70;54.40
45044;DHT22;30784;48.490;9.688;2023-02-15T00:51:14;6.60;54.30
45044;DHT22;30784;48.490;9.688;2023-02-15T00:53:39;6.60;54.20
45044;DHT22;30784;48.490;9.688;2023-02-15T00:56:05;6.60;54.20
45044;DHT22;30784;48.490;9.688;2023-02-15T00:58:30;6.60;54.20
45044;DHT22;30784;48.490;9.688;2023-02-15T01:01:06;6.50;54.10
45044;DHT22;30784;48.490;9.688;2023-02-15T01:03:32;6.50;54.10
45044;DHT22;30784;48.490;9.688;2023-02-15T01:05:58;6.50;54.60
45044;DHT22;30784;48.490;9.688;2023-02-15T01:08:24;6.40;54.10
45044;DHT22;30784;48.490;9.688;2023-02-15T01:10:50;6.40;54.10
45044;DHT22;30784;48.490;9.688;2023-02-15T01:13:15;6.30;54.20
45044;DHT22;30784;48.490;9.688;2023-02-15T01:15:42;6.30;54.20
45044;DHT22;30784;48.490;9.688;2023-02-15T01:18:08;6.20;54.20
45044;DHT22;30784;48.490;9.688;2023-02-15T01:20:35;6.20;54.20
45044;DHT22;30784;48.490;9.688;2023-02-15T01:23:05;6.20;54.30
45044;DHT22;30784;48.490;9.688;2023-02-15T01:25:30;6.10;54.20
45044;DHT22;30784;48.490;9.688;2023-02-15T01:27:56;6.10;54.10
45044;DHT22;30784;48.490;9.688;2023-02-15T01:30:21;6.10;54.30
45044;DHT22;30784;48.490;9.688;2023-02-15T01:32:47;6.00;54.30
45044;DHT22;30784;48.490;9.688;2023-02-15T01:35:12;6.00;54.30
45044;DHT22;30784;48.490;9.688;2023-02-15T01:37:38;6.00;54.40
45044;DHT22;30784;48.490;9.688;2023-02-15T01:40:06;6.00;54.50
45044;DHT22;30784;48.490;9.688;2023-02-15T01:42:32;5.90;54.40
45044;DHT22;30784;48.490;9.688;2023-02-15T01:45:03;5.90;54.40
45044;DHT22;30784;48.490;9.688;2023-02-15T01:47:39;5.90;54.50
45044;DHT22;30784;48.490;9.688;2023-02-15T01:52:46;5.80;54.50
45044;DHT22;30784;48.490;9.688;2023-02-15T01:55:13;5.70;54.60
45044;DHT22;30784;48.490;9.688;2023-02-15T01:57:40;5.70;54.50
45044;DHT22;30784;48.490;9.688;2023-02-15T02:00:06;5.70;54.50
45044;DHT22;30784;48.490;9.688;2023-02-15T02:02:33;5.70;54.60
45044;DHT22;30784;48.490;9.688;2023-02-15T02:05:01;5.70;54.70
45044;DHT22;30784;48.490;9.688;2023-02-15T02:07:35;5.60;54.90
45044;DHT22;30784;48.490;9.688;2023-02-15T02:10:03;5.60;55.00
45044;DHT22;30784;48.490;9.688;2023-02-15T02:12:31;5.60;55.10
45044;DHT22;30784;48.490;9.688;2023-02-15T02:14:57;5.60;55.20
45044;DHT22;30784;48.490;9.688;2023-02-15T02:25:58;5.60;55.40
45044;DHT22;30784;48.490;9.688;2023-02-15T02:32:00;5.50;55.20
45044;DHT22;30784;48.490;9.688;2023-02-15T02:34:33;5.50;55.20
45044;DHT22;30784;48.490;9.688;2023-02-15T02:37:17;5.50;55.30
45044;DHT22;30784;48.490;9.688;2023-02-15T02:45:58;5.50;55.30
45044;DHT22;30784;48.490;9.688;2023-02-15T02:48:29;5.50;55.30
45044;DHT22;30784;48.490;9.688;2023-02-15T02:50:55;5.50;55.40
45044;DHT22;30784;48.490;9.688;2023-02-15T02:53:21;5.40;55.50
45044;DHT22;30784;48.490;9.688;2023-02-15T02:55:55;5.40;55.40
45044;DHT22;30784;48.490;9.688;2023-02-15T02:58:31;5.40;55.50
45044;DHT22;30784;48.490;9.688;2023-02-15T03:01:16;5.40;55.40
45044;DHT22;30784;48.490;9.688;2023-02-15T03:03:47;5.40;55.30
45044;DHT22;30784;48.490;9.688;2023-02-15T03:06:30;5.40;55.50
45044;DHT22;30784;48.490;9.688;2023-02-15T03:09:22;5.40;55.40
45044;DHT22;30784;48.490;9.688;2023-02-15T03:11:50;5.40;55.40
45044;DHT22;30784;48.490;9.688;2023-02-15T03:14:17;5.40;55.50
45044;DHT22;30784;48.490;9.688;2023-02-15T03:16:47;5.40;55.50
45044;DHT22;30784;48.490;9.688;2023-02-15T03:19:25;5.40;55.60
45044;DHT22;30784;48.490;9.688;2023-02-15T03:21:56;5.30;55.70
45044;DHT22;30784;48.490;9.688;2023-02-15T03:24:32;5.30;55.80
45044;DHT22;30784;48.490;9.688;2023-02-15T03:27:03;5.30;55.80
45044;DHT22;30784;48.490;9.688;2023-02-15T03:29:31;5.20;55.90
45044;DHT22;30784;48.490;9.688;2023-02-15T03:32:00;5.30;55.90
45044;DHT22;30784;48.490;9.688;2023-02-15T03:34:27;5.30;56.00
45044;DHT22;30784;48.490;9.688;2023-02-15T03:37:02;5.30;56.10
45044;DHT22;30784;48.490;9.688;2023-02-15T03:39:57;5.20;56.10
45044;DHT22;30784;48.490;9.688;2023-02-15T03:42:45;5.20;56.00
45044;DHT22;30784;48.490;9.688;2023-02-15T03:45:15;5.20;56.20
45044;DHT22;30784;48.490;9.688;2023-02-15T03:47:45;5.20;56.30
45044;DHT22;30784;48.490;9.688;2023-02-15T03:50:26;5.30;56.50
45044;DHT22;30784;48.490;9.688;2023-02-15T03:53:14;5.30;56.30
45044;DHT22;30784;48.490;9.688;2023-02-15T03:55:40;5.30;56.50
45044;DHT22;30784;48.490;9.688;2023-02-15T03:58:06;5.30;56.40
45044;DHT22;30784;48.490;9.688;2023-02-15T04:00:57;5.30;56.70
45044;DHT22;30784;48.490;9.688;2023-02-15T04:03:50;5.30;56.40
45044;DHT22;30784;48.490;9.688;2023-02-15T04:06:16;5.30;56.30
45044;DHT22;30784;48.490;9.688;2023-02-15T04:08:42;5.30;56.30
45044;DHT22;30784;48.490;9.688;2023-02-15T04:11:26;5.40;56.40
45044;DHT22;30784;48.490;9.688;2023-02-15T04:13:51;5.30;56.50
45044;DHT22;30784;48.490;9.688;2023-02-15T04:16:25;5.40;56.50
45044;DHT22;30784;48.490;9.688;2023-02-15T04:18:50;5.30;56.30
45044;DHT22;30784;48.490;9.688;2023-02-15T04:21:35;5.30;56.20
45044;DHT22;30784;48.490;9.688;2023-02-15T04:24:19;5.30;56.30
45044;DHT22;30784;48.490;9.688;2023-02-15T04:27:04;5.30;56.30
45044;DHT22;30784;48.490;9.688;2023-02-15T04:29:31;5.30;56.40
45044;DHT22;30784;48.490;9.688;2023-02-15T04:31:59;5.30;56.30
45044;DHT22;30784;48.490;9.688;2023-02-15T04:34:25;5.30;56.90
45044;DHT22;30784;48.490;9.688;2023-02-15T04:36:51;5.30;56.30
45044;DHT22;30784;48.490;9.688;2023-02-15T04:39:17;5.30;56.20
45044;DHT22;30784;48.490;9.688;2023-02-15T04:41:44;5.30;56.20
45044;DHT22;30784;48.490;9.688;2023-02-15T04:44:09;5.30;56.00
45044;DHT22;30784;48.490;9.688;2023-02-15T04:46:35;5.30;56.00
45044;DHT22;30784;48.490;9.688;2023-02-15T04:49:01;5.30;55.90
45044;DHT22;30784;48.490;9.688;2023-02-15T04:51:26;5.20;55.80
45044;DHT22;30784;48.490;9.688;2023-02-15T04:53:52;5.20;55.70
45044;DHT22;30784;48.490;9.688;2023-02-15T04:56:21;5.20;55.80
45044;DHT22;30784;48.490;9.688;2023-02-15T04:58:47;5.20;55.70
45044;DHT22;30784;48.490;9.688;2023-02-15T05:01:13;5.20;55.60
45044;DHT22;30784;48.490;9.688;2023-02-15T05:03:38;5.20;55.60
45044;DHT22;30784;48.490;9.688;2023-02-15T05:06:04;5.10;55.50
45044;DHT22;30784;48.490;9.688;2023-02-15T05:08:30;5.10;55.60
45044;DHT22;30784;48.490;9.688;2023-02-15T05:10:56;5.10;55.70
45044;DHT22;30784;48.490;9.688;2023-02-15T05:13:22;5.00;55.70
45044;DHT22;30784;48.490;9.688;2023-02-15T05:15:49;5.00;55.80
45044;DHT22;30784;48.490;9.688;2023-02-15T05:18:18;4.90;55.80
45044;DHT22;30784;48.490;9.688;2023-02-15T05:20:44;4.90;55.80
45044;DHT22;30784;48.490;9.688;2023-02-15T05:23:09;4.90;55.80
45044;DHT22;30784;48.490;9.688;2023-02-15T05:25:35;4.90;55.70
45044;DHT22;30784;48.490;9.688;2023-02-15T05:28:19;4.90;55.70
45044;DHT22;30784;48.490;9.688;2023-02-15T05:31:07;4.80;55.60
45044;DHT22;30784;48.490;9.688;2023-02-15T05:33:31;4.80;55.70
45044;DHT22;30784;48.490;9.688;2023-02-15T05:35:56;4.80;55.90
45044;DHT22;30784;48.490;9.688;2023-02-15T05:38:22;4.80;56.40
45044;DHT22;30784;48.490;9.688;2023-02-15T05:40:47;4.80;56.70
45044;DHT22;30784;48.490;9.688;2023-02-15T05:43:13;4.70;56.90
45044;DHT22;30784;48.490;9.688;2023-02-15T05:45:38;4.70;57.10
45044;DHT22;30784;48.490;9.688;2023-02-15T05:48:04;4.80;57.40
45044;DHT22;30784;48.490;9.688;2023-02-15T05:50:30;4.80;57.40
45044;DHT22;30784;48.490;9.688;2023-02-15T05:52:55;4.80;57.50
45044;DHT22;30784;48.490;9.688;2023-02-15T05:55:21;4.80;57.50
45044;DHT22;30784;48.490;9.688;2023-02-15T05:57:48;4.90;57.20
45044;DHT22;30784;48.490;9.688;2023-02-15T06:00:14;4.90;57.00
45044;DHT22;30784;48.490;9.688;2023-02-15T06:02:40;5.00;56.90
45044;DHT22;30784;48.490;9.688;2023-02-15T06:05:06;5.00;57.00
45044;DHT22;30784;48.490;9.688;2023-02-15T06:07:31;5.00;56.90
45044;DHT22;30784;48.490;9.688;2023-02-15T06:09:57;5.00;56.70
45044;DHT22;30784;48.490;9.688;2023-02-15T06:12:23;5.00;57.10
45044;DHT22;30784;48.490;9.688;2023-02-15T06:14:49;5.00;56.50
45044;DHT22;30784;48.490;9.688;2023-02-15T06:17:14;5.00;56.40
45044;DHT22;30784;48.490;9.688;2023-02-15T06:19:41;5.10;56.40
45044;DHT22;30784;48.490;9.688;2023-02-15T06:22:07;5.10;56.50
45044;DHT22;30784;48.490;9.688;2023-02-15T06:24:33;5.00;56.50
45044;DHT22;30784;48.490;9.688;2023-02-15T06:26:58;5.00;56.60
45044;DHT22;30784;48.490;9.688;2023-02-15T06:29:24;5.00;56.60
45044;DHT22;30784;48.490;9.688;2023-02-15T06:31:49;5.00;56.60
45044;DHT22;30784;48.490;9.688;2023-02-15T06:34:15;5.00;56.60
45044;DHT22;30784;48.490;9.688;2023-02-15T06:36:41;5.00;56.50
45044;DHT22;30784;48.490;9.688;2023-02-15T06:39:06;5.00;56.40
45044;DHT22;30784;48.490;9.688;2023-02-15T06:41:32;5.00;56.40
45044;DHT22;30784;48.490;9.688;2023-02-15T06:43:57;5.00;56.40
45044;DHT22;30784;48.490;9.688;2023-02-15T06:46:23;5.00;56.40
45044;DHT22;30784;48.490;9.688;2023-02-15T06:48:49;5.00;56.50
45044;DHT22;30784;48.490;9.688;2023-02-15T06:51:14;5.00;56.70
45044;DHT22;30784;48.490;9.688;2023-02-15T06:53:40;5.00;56.80
45044;DHT22;30784;48.490;9.688;2023-02-15T06:56:10;5.00;56.90
45044;DHT22;30784;48.490;9.688;2023-02-15T06:58:37;5.10;57.00
45044;DHT22;30784;48.490;9.688;2023-02-15T07:01:03;5.10;57.00
45044;DHT22;30784;48.490;9.688;2023-02-15T07:03:29;5.10;57.00
45044;DHT22;30784;48.490;9.688;2023-02-15T07:05:59;5.20;57.40
45044;DHT22;30784;48.490;9.688;2023-02-15T07:08:26;5.20;57.60
45044;DHT22;30784;48.490;9.688;2023-02-15T07:10:53;5.20;57.60
45044;DHT22;30784;48.490;9.688;2023-02-15T07:13:19;5.30;57.70
45044;DHT22;30784;48.490;9.688;2023-02-15T07:15:47;5.40;57.70
45044;DHT22;30784;48.490;9.688;2023-02-15T07:18:12;5.40;57.60
45044;DHT22;30784;48.490;9.688;2023-02-15T07:20:38;5.50;57.60
45044;DHT22;30784;48.490;9.688;2023-02-15T07:23:07;5.60;57.60
45044;DHT22;30784;48.490;9.688;2023-02-15T07:25:33;5.70;57.40
45044;DHT22;30784;48.490;9.688;2023-02-15T07:28:00;5.70;57.40
45044;DHT22;30784;48.490;9.688;2023-02-15T07:30:26;5.80;57.50
45044;DHT22;30784;48.490;9.688;2023-02-15T07:32:58;5.90;57.50
45044;DHT22;30784;48.490;9.688;2023-02-15T07:35:59;6.00;57.80
45044;DHT22;30784;48.490;9.688;2023-02-15T07:38:30;6.20;58.00
45044;DHT22;30784;48.490;9.688;2023-02-15T07:41:00;6.30;58.10
45044;DHT22;30784;48.490;9.688;2023-02-15T07:43:25;6.40;58.20
45044;DHT22;30784;48.490;9.688;2023-02-15T07:45:51;6.60;58.10
45044;DHT22;30784;48.490;9.688;2023-02-15T07:48:16;6.70;58.20
45044;DHT22;30784;48.490;9.688;2023-02-15T07:50:42;6.90;58.00
45044;DHT22;30784;48.490;9.688;2023-02-15T07:53:08;7.10;57.90
45044;DHT22;30784;48.490;9.688;2023-02-15T07:55:34;7.20;57.90
45044;DHT22;30784;48.490;9.688;2023-02-15T07:57:59;7.40;58.00
45044;DHT22;30784;48.490;9.688;2023-02-15T08:00:25;7.50;58.10
45044;DHT22;30784;48.490;9.688;2023-02-15T08:02:52;7.80;57.90
45044;DHT22;30784;48.490;9.688;2023-02-15T08:05:36;8.00;57.70
45044;DHT22;30784;48.490;9.688;2023-02-15T08:08:02;8.20;57.40
45044;DHT22;30784;48.490;9.688;2023-02-15T08:10:27;8.40;57.10
45044;DHT22;30784;48.490;9.688;2023-02-15T08:13:13;8.60;56.50
45044;DHT22;30784;48.490;9.688;2023-02-15T08:15:38;8.90;56.20
45044;DHT22;30784;48.490;9.688;2023-02-15T08:18:04;9.00;56.30
45044;DHT22;30784;48.490;9.688;2023-02-15T08:20:29;9.30;56.00
45044;DHT22;30784;48.490;9.688;2023-02-15T08:22:55;9.50;55.60
45044;DHT22;30784;48.490;9.688;2023-02-15T08:25:20;9.70;55.50
45044;DHT22;30784;48.490;9.688;2023-02-15T08:27:46;9.90;55.40
45044;DHT22;30784;48.490;9.688;2023-02-15T08:30:12;10.10;54.70
45044;DHT22;30784;48.490;9.688;2023-02-15T08:32:39;10.40;54.80
45044;DHT22;30784;48.490;9.688;2023-02-15T08:35:05;10.60;54.70
45044;DHT22;30784;48.490;9.688;2023-02-15T08:37:30;10.80;54.80
45044;DHT22;30784;48.490;9.688;2023-02-15T08:39:56;11.10;54.60
45044;DHT22;30784;48.490;9.688;2023-02-15T08:42:21;11.40;54.10
45044;DHT22;30784;48.490;9.688;2023-02-15T08:44:47;11.60;53.90
45044;DHT22;30784;48.490;9.688;2023-02-15T08:47:15;11.80;53.50
45044;DHT22;30784;48.490;9.688;2023-02-15T08:49:41;12.10;53.20
45044;DHT22;30784;48.490;9.688;2023-02-15T08:52:06;12.40;53.00
45044;DHT22;30784;48.490;9.688;2023-02-15T08:54:32;12.70;52.40
45044;DHT22;30784;48.490;9.688;2023-02-15T08:56:58;12.90;52.00
45044;DHT22;30784;48.490;9.688;2023-02-15T08:59:24;13.20;51.50
45044;DHT22;30784;48.490;9.688;2023-02-15T09:04:19;13.70;51.10
45044;DHT22;30784;48.490;9.688;2023-02-15T09:06:47;13.90;51.20
45044;DHT22;30784;48.490;9.688;2023-02-15T09:09:12;14.20;50.70
45044;DHT22;30784;48.490;9.688;2023-02-15T09:11:41;14.40;50.70
45044;DHT22;30784;48.490;9.688;2023-02-15T09:14:12;14.70;50.70
45044;DHT22;30784;48.490;9.688;2023-02-15T09:16:43;15.00;50.60
45044;DHT22;30784;48.490;9.688;2023-02-15T09:19:14;15.20;49.90
45044;DHT22;30784;48.490;9.688;2023-02-15T09:21:39;15.50;49.40
45044;DHT22;30784;48.490;9.688;2023-02-15T09:24:07;15.80;49.20
45044;DHT22;30784;48.490;9.688;2023-02-15T09:26:36;16.00;48.60
45044;DHT22;30784;48.490;9.688;2023-02-15T09:29:03;16.20;48.30
45044;DHT22;30784;48.490;9.688;2023-02-15T09:31:49;16.50;47.80
45044;DHT22;30784;48.490;9.688;2023-02-15T09:34:18;16.80;49.50
45044;DHT22;30784;48.490;9.688;2023-02-15T09:36:44;17.00;47.20
45044;DHT22;30784;48.490;9.688;2023-02-15T09:50:21;18.40;47.50
45044;DHT22;30784;48.490;9.688;2023-02-15T10:09:27;20.10;43.00
45044;DHT22;30784;48.490;9.688;2023-02-15T10:12:17;20.40;41.80
45044;DHT22;30784;48.490;9.688;2023-02-15T10:15:08;20.60;42.50
45044;DHT22;30784;48.490;9.688;2023-02-15T10:17:53;20.80;42.60
45044;DHT22;30784;48.490;9.688;2023-02-15T10:23:25;21.20;41.30
45044;DHT22;30784;48.490;9.688;2023-02-15T10:26:11;21.30;41.70
45044;DHT22;30784;48.490;9.688;2023-02-15T10:28:49;21.30;40.30
45044;DHT22;30784;48.490;9.688;2023-02-15T10:31:27;21.30;39.00
45044;DHT22;30784;48.490;9.688;2023-02-15T10:36:46;21.40;40.30
45044;DHT22;30784;48.490;9.688;2023-02-15T10:42:45;21.60;40.80
45044;DHT22;30784;48.490;9.688;2023-02-15T10:51:02;21.90;41.20
45044;DHT22;30784;48.490;9.688;2023-02-15T11:02:10;22.30;39.10
45044;DHT22;30784;48.490;9.688;2023-02-15T11:07:32;22.40;38.00
45044;DHT22;30784;48.490;9.688;2023-02-15T11:12:38;22.40;37.50
45044;DHT22;30784;48.490;9.688;2023-02-15T11:15:16;22.40;39.20
45044;DHT22;30784;48.490;9.688;2023-02-15T11:17:55;22.40;37.60
45044;DHT22;30784;48.490;9.688;2023-02-15T11:20:29;22.30;37.70
45044;DHT22;30784;48.490;9.688;2023-02-15T11:22:56;22.40;37.60
45044;DHT22;30784;48.490;9.688;2023-02-15T11:25:31;22.20;37.00
45044;DHT22;30784;48.490;9.688;2023-02-15T11:27:57;22.20;37.40
45044;DHT22;30784;48.490;9.688;2023-02-15T11:30:27;22.20;37.10
45044;DHT22;30784;48.490;9.688;2023-02-15T11:32:58;22.20;37.00
45044;DHT22;30784;48.490;9.688;2023-02-15T11:35:42;22.20;36.90
45044;DHT22;30784;48.490;9.688;2023-02-15T11:38:24;22.20;37.50
45044;DHT22;30784;48.490;9.688;2023-02-15T11:41:02;22.10;36.70
45044;DHT22;30784;48.490;9.688;2023-02-15T11:43:54;22.10;37.00
45044;DHT22;30784;48.490;9.688;2023-02-15T11:46:22;22.10;37.00
45044;DHT22;30784;48.490;9.688;2023-02-15T11:48:47;22.20;36.70
45044;DHT22;30784;48.490;9.688;2023-02-15T11:51:21;22.10;36.40
45044;DHT22;30784;48.490;9.688;2023-02-15T11:53:48;22.10;36.50
45044;DHT22;30784;48.490;9.688;2023-02-15T11:56:16;22.10;36.20
45044;DHT22;30784;48.490;9.688;2023-02-15T11:59:08;22.10;36.30
45044;DHT22;30784;48.490;9.688;2023-02-15T12:01:31;22.10;36.10
45044;DHT22;30784;48.490;9.688;2023-02-15T12:04:02;22.20;35.80
45044;DHT22;30784;48.490;9.688;2023-02-15T12:06:35;22.20;35.90
45044;DHT22;30784;48.490;9.688;2023-02-15T12:09:25;22.20;35.90
45044;DHT22;30784;48.490;9.688;2023-02-15T12:12:21;22.20;36.30
45044;DHT22;30784;48.490;9.688;2023-02-15T12:14:54;22.20;36.50
45044;DHT22;30784;48.490;9.688;2023-02-15T12:17:26;22.20;35.70
45044;DHT22;30784;48.490;9.688;2023-02-15T12:19:55;22.20;35.80
45044;DHT22;30784;48.490;9.688;2023-02-15T12:22:25;22.30;35.90
45044;DHT22;30784;48.490;9.688;2023-02-15T12:24:54;22.20;35.70
45044;DHT22;30784;48.490;9.688;2023-02-15T12:27:28;22.20;35.80
45044;DHT22;30784;48.490;9.688;2023-02-15T12:30:07;22.20;35.60
45044;DHT22;30784;48.490;9.688;2023-02-15T12:32:54;22.20;36.10
45044;DHT22;30784;48.490;9.688;2023-02-15T12:35:25;22.20;36.20
45044;DHT22;30784;48.490;9.688;2023-02-15T12:38:05;22.30;35.80
45044;DHT22;30784;48.490;9.688;2023-02-15T12:40:41;22.30;35.60
45044;DHT22;30784;48.490;9.688;2023-02-15T12:43:26;22.40;35.50
45044;DHT22;30784;48.490;9.688;2023-02-15T12:45:52;22.40;35.90
45044;DHT22;30784;48.490;9.688;2023-02-15T12:48:19;22.40;35.20
45044;DHT22;30784;48.490;9.688;2023-02-15T12:50:46;22.40;35.10
45044;DHT22;30784;48.490;9.688;2023-02-15T12:53:19;22.40;34.70
45044;DHT22;30784;48.490;9.688;2023-02-15T12:55:51;22.40;33.80
45044;DHT22;30784;48.490;9.688;2023-02-15T12:58:23;22.40;33.60
45044;DHT22;30784;48.490;9.688;2023-02-15T13:03:35;22.30;33.90
45044;DHT22;30784;48.490;9.688;2023-02-15T13:06:02;22.30;33.40
45044;DHT22;30784;48.490;9.688;2023-02-15T13:08:35;22.20;33.40
45044;DHT22;30784;48.490;9.688;2023-02-15T13:11:07;22.20;33.40
45044;DHT22;30784;48.490;9.688;2023-02-15T13:16:30;22.20;33.70
45044;DHT22;30784;48.490;9.688;2023-02-15T13:18:57;22.30;33.70
45044;DHT22;30784;48.490;9.688;2023-02-15T13:21:32;22.20;33.10
45044;DHT22;30784;48.490;9.688;2023-02-15T13:27:22;22.00;33.20
45044;DHT22;30784;48.490;9.688;2023-02-15T13:29:55;21.90;31.70
45044;DHT22;30784;48.490;9.688;2023-02-15T13:34:57;22.00;32.00
45044;DHT22;30784;48.490;9.688;2023-02-15T13:37:42;21.90;32.00
45044;DHT22;30784;48.490;9.688;2023-02-15T13:40:25;22.00;31.70
45044;DHT22;30784;48.490;9.688;2023-02-15T13:43:12;21.90;31.10
45044;DHT22;30784;48.490;9.688;2023-02-15T13:51:14;21.70;31.00
45044;DHT22;30784;48.490;9.688;2023-02-15T13:54:27;21.70;30.90
45044;DHT22;30784;48.490;9.688;2023-02-15T13:59:58;21.60;31.30
45044;DHT22;30784;48.490;9.688;2023-02-15T14:05:15;21.70;32.10
45044;DHT22;30784;48.490;9.688;2023-02-15T14:10:43;21.80;32.40
45044;DHT22;30784;48.490;9.688;2023-02-15T14:16:40;21.80;31.70
45044;DHT22;30784;48.490;9.688;2023-02-15T14:19:29;21.80;31.10
45044;DHT22;30784;48.490;9.688;2023-02-15T14:22:00;21.80;31.00
45044;DHT22;30784;48.490;9.688;2023-02-15T14:24:44;21.80;30.60
45044;DHT22;30784;48.490;9.688;2023-02-15T14:30:24;21.70;30.90
45044;DHT22;30784;48.490;9.688;2023-02-15T14:35:51;21.50;29.30
45044;DHT22;30784;48.490;9.688;2023-02-15T14:38:38;21.40;27.60
45044;DHT22;30784;48.490;9.688;2023-02-15T14:41:24;21.30;28.50
45044;DHT22;30784;48.490;9.688;2023-02-15T14:44:05;21.20;27.80
45044;DHT22;30784;48.490;9.688;2023-02-15T14:49:32;21.10;29.70
45044;DHT22;30784;48.490;9.688;2023-02-15T14:52:08;21.00;29.60
45044;DHT22;30784;48.490;9.688;2023-02-15T14:59:37;20.70;30.60
45044;DHT22;30784;48.490;9.688;2023-02-15T15:02:13;20.60;30.70
45044;DHT22;30784;48.490;9.688;2023-02-15T15:04:55;20.50;30.90
45044;DHT22;30784;48.490;9.688;2023-02-15T15:07:24;20.40;31.30
45044;DHT22;30784;48.490;9.688;2023-02-15T15:09:59;20.30;31.70
45044;DHT22;30784;48.490;9.688;2023-02-15T15:14:53;20.00;31.90
45044;DHT22;30784;48.490;9.688;2023-02-15T15:19:59;19.80;31.70
45044;DHT22;30784;48.490;9.688;2023-02-15T15:22:27;19.80;32.50
45044;DHT22;30784;48.490;9.688;2023-02-15T15:24:54;19.60;32.50
45044;DHT22;30784;48.490;9.688;2023-02-15T15:27:47;19.60;33.00
45044;DHT22;30784;48.490;9.688;2023-02-15T15:32:58;19.30;33.00
45044;DHT22;30784;48.490;9.688;2023-02-15T15:42:09;18.90;32.80
45044;DHT22;30784;48.490;9.688;2023-02-15T15:50:31;18.40;32.80
45044;DHT22;30784;48.490;9.688;2023-02-15T15:52:58;18.30;33.20
45044;DHT22;30784;48.490;9.688;2023-02-15T15:55:28;18.10;33.10
45044;DHT22;30784;48.490;9.688;2023-02-15T15:58:01;18.00;33.30
45044;DHT22;30784;48.490;9.688;2023-02-15T16:01:22;17.80;33.40
45044;DHT22;30784;48.490;9.688;2023-02-15T16:03:29;17.60;33.10
45044;DHT22;30784;48.490;9.688;2023-02-15T16:05:55;17.60;33.40
45044;DHT22;30784;48.490;9.688;2023-02-15T16:08:36;17.40;33.50
45044;DHT22;30784;48.490;9.688;2023-02-15T16:11:16;17.30;33.20
45044;DHT22;30784;48.490;9.688;2023-02-15T16:13:44;17.20;33.40
45044;DHT22;30784;48.490;9.688;2023-02-15T16:16:13;17.00;33.70
45044;DHT22;30784;48.490;9.688;2023-02-15T16:18:39;16.90;33.80
45044;DHT22;30784;48.490;9.688;2023-02-15T16:21:18;16.70;33.90
45044;DHT22;30784;48.490;9.688;2023-02-15T16:24:13;16.50;33.90
45044;DHT22;30784;48.490;9.688;2023-02-15T16:29:32;16.30;34.20
45044;DHT22;30784;48.490;9.688;2023-02-15T16:32:04;16.10;34.20
45044;DHT22;30784;48.490;9.688;2023-02-15T16:34:31;16.00;34.40
45044;DHT22;30784;48.490;9.688;2023-02-15T16:37:33;15.80;34.40
45044;DHT22;30784;48.490;9.688;2023-02-15T16:40:00;15.70;33.90
45044;DHT22;30784;48.490;9.688;2023-02-15T16:42:25;15.60;34.60
45044;DHT22;30784;48.490;9.688;2023-02-15T16:45:16;15.50;34.60
45044;DHT22;30784;48.490;9.688;2023-02-15T16:47:43;15.40;34.70
45044;DHT22;30784;48.490;9.688;2023-02-15T16:50:18;15.30;34.90
45044;DHT22;30784;48.490;9.688;2023-02-15T16:52:45;15.30;34.70
45044;DHT22;30784;48.490;9.688;2023-02-15T16:55:21;15.20;34.80
45044;DHT22;30784;48.490;9.688;2023-02-15T16:57:49;15.20;34.70
45044;DHT22;30784;48.490;9.688;2023-02-15T17:00:26;15.10;35.00
45044;DHT22;30784;48.490;9.688;2023-02-15T17:03:21;15.00;34.50
45044;DHT22;30784;48.490;9.688;2023-02-15T17:05:58;14.90;34.40
45044;DHT22;30784;48.490;9.688;2023-02-15T17:08:40;14.80;34.80
45044;DHT22;30784;48.490;9.688;2023-02-15T17:11:14;14.70;34.70
45044;DHT22;30784;48.490;9.688;2023-02-15T17:13:40;14.60;34.90
45044;DHT22;30784;48.490;9.688;2023-02-15T17:16:30;14.50;35.20
45044;DHT22;30784;48.490;9.688;2023-02-15T17:19:02;14.40;35.30
45044;DHT22;30784;48.490;9.688;2023-02-15T17:21:37;14.30;35.50
45044;DHT22;30784;48.490;9.688;2023-02-15T17:24:05;14.20;35.70
45044;DHT22;30784;48.490;9.688;2023-02-15T17:26:34;14.10;35.70
45044;DHT22;30784;48.490;9.688;2023-02-15T17:31:31;13.90;36.10
45044;DHT22;30784;48.490;9.688;2023-02-15T17:33:58;13.90;36.10
45044;DHT22;30784;48.490;9.688;2023-02-15T17:36:26;13.90;36.40
45044;DHT22;30784;48.490;9.688;2023-02-15T17:43:48;13.60;36.60
45044;DHT22;30784;48.490;9.688;2023-02-15T17:46:14;13.50;37.00
45044;DHT22;30784;48.490;9.688;2023-02-15T17:48:44;13.50;37.20
45044;DHT22;30784;48.490;9.688;2023-02-15T17:51:12;13.40;37.30
45044;DHT22;30784;48.490;9.688;2023-02-15T17:53:38;13.30;37.50
45044;DHT22;30784;48.490;9.688;2023-02-15T17:56:04;13.30;37.50
45044;DHT22;30784;48.490;9.688;2023-02-15T17:58:35;13.20;37.70
45044;DHT22;30784;48.490;9.688;2023-02-15T18:01:04;13.20;36.20
45044;DHT22;30784;48.490;9.688;2023-02-15T18:03:51;13.10;37.70
45044;DHT22;30784;48.490;9.688;2023-02-15T18:06:38;13.00;38.10
45044;DHT22;30784;48.490;9.688;2023-02-15T18:09:23;13.00;38.20
45044;DHT22;30784;48.490;9.688;2023-02-15T18:12:21;12.90;38.40
45044;DHT22;30784;48.490;9.688;2023-02-15T18:14:48;12.70;37.80
45044;DHT22;30784;48.490;9.688;2023-02-15T18:17:15;12.70;38.70
45044;DHT22;30784;48.490;9.688;2023-02-15T18:19:42;12.60;38.80
45044;DHT22;30784;48.490;9.688;2023-02-15T18:22:13;12.50;39.00
45044;DHT22;30784;48.490;9.688;2023-02-15T18:24:39;12.50;39.10
45044;DHT22;30784;48.490;9.688;2023-02-15T18:27:05;12.40;39.30
45044;DHT22;30784;48.490;9.688;2023-02-15T18:29:31;12.40;39.30
45044;DHT22;30784;48.490;9.688;2023-02-15T18:31:57;12.30;39.20
45044;DHT22;30784;48.490;9.688;2023-02-15T18:34:29;12.20;39.40
45044;DHT22;30784;48.490;9.688;2023-02-15T18:36:57;12.20;39.20